This is the latest recevied weather packets stored in our database for station/object ON5MM-5. If no packets are shown the sender has not sent any weather packets the latest 10 day(s).
| Time | Temp. | Humidity | Pressure | Rain* | Wind** | Luminosity | Snow |
|---|---|---|---|---|---|---|---|
| 1777490102 | 13.33° C | 33% | 1025.4 hPa | 0 mm | 0 m/s | - | - |
| 1777483502 | 16.67° C | 27% | 1024.5 hPa | 0 mm | 2.68 m/s, ° | - | - |
| 1777481102 | 17.78° C | 26% | 1024.5 hPa | 0 mm | 2.24 m/s, ° | - | - |
| 1777476902 | 17.78° C | 25% | 1024.5 hPa | 0 mm | 3.13 m/s, ° | - | - |
| 1777471803 | 18.33° C | 27% | 1024.7 hPa | 0 mm | 2.68 m/s, ° | - | - |
| 1777469102 | 18.33° C | 29% | 1024.9 hPa | 0 mm | 2.68 m/s, ° | - | - |
| 1777468802 | 17.78° C | 29% | 1024.9 hPa | 0 mm | 2.68 m/s, ° | - | - |
| 1777468502 | 17.78° C | 27% | 1025 hPa | 0 mm | 3.13 m/s, ° | - | - |
| 1777466102 | 17.78° C | 27% | 1024.9 hPa | 0 mm | 2.68 m/s, ° | - | - |
| 1777465802 | 17.78° C | 28% | 1024.9 hPa | 0 mm | 2.68 m/s, ° | - | - |
| 1777465502 | 17.78° C | 28% | 1025 hPa | 0 mm | 2.24 m/s, ° | - | - |
| 1777465202 | 17.22° C | 28% | 1025 hPa | 0 mm | 3.13 m/s, ° | - | - |
| 1777462803 | 16.67° C | 32% | 1025.2 hPa | 0 mm | 2.24 m/s, ° | - | - |
| 1777462503 | 16.67° C | 31% | 1025.2 hPa | 0 mm | 2.68 m/s, ° | - | - |
| 1777462202 | 16.67° C | 33% | 1025.3 hPa | 0 mm | 2.68 m/s, ° | - | - |
| 1777461602 | 16.67° C | 34% | 1025.2 hPa | 0 mm | 2.68 m/s, ° | - | - |
| 1777461303 | 16.67° C | 34% | 1025.3 hPa | 0 mm | 2.68 m/s, ° | - | - |
| 1777461003 | 16.67° C | 33% | 1025.2 hPa | 0 mm | 2.68 m/s, ° | - | - |
| 1777460402 | 16.11° C | 34% | 1025.3 hPa | 0 mm | 2.68 m/s, ° | - | - |
| 1777459203 | 15.56° C | 35% | 1025.4 hPa | 0 mm | 2.24 m/s, ° | - | - |
| 1777458902 | 15.56° C | 35% | 1025.3 hPa | 0 mm | 2.24 m/s, ° | - | - |
| 1777458003 | 15° C | 35% | 1025.4 hPa | 0 mm | 2.68 m/s, ° | - | - |
| 1777457702 | 15° C | 34% | 1025.5 hPa | 0 mm | 3.13 m/s, ° | - | - |
| 1777457402 | 15° C | 34% | 1025.5 hPa | 0 mm | 2.68 m/s, ° | - | - |
| 1777457102 | 15° C | 34% | 1025.4 hPa | 0 mm | 3.13 m/s, ° | - | - |
* Rain latest hour (hover to see other rain measurements)
** Current wind speed in m/s (hover to see current wind gust speed)